sensor_id;sensor_type;location;lat;lon;timestamp;temperature;humidity
32215;DHT22;18708;53.124;23.190;2024-03-02T00:00:11;6.40;1.00
32215;DHT22;18708;53.124;23.190;2024-03-02T00:02:45;6.40;1.00
32215;DHT22;18708;53.124;23.190;2024-03-02T00:05:18;6.30;1.00
32215;DHT22;18708;53.124;23.190;2024-03-02T00:07:55;6.20;1.00
32215;DHT22;18708;53.124;23.190;2024-03-02T00:10:38;6.20;1.00
32215;DHT22;18708;53.124;23.190;2024-03-02T00:13:10;6.10;1.00
32215;DHT22;18708;53.124;23.190;2024-03-02T00:15:48;6.20;1.00
32215;DHT22;18708;53.124;23.190;2024-03-02T00:18:31;6.10;1.00
32215;DHT22;18708;53.124;23.190;2024-03-02T00:20:57;6.10;1.00
32215;DHT22;18708;53.124;23.190;2024-03-02T00:23:24;6.20;1.00
32215;DHT22;18708;53.124;23.190;2024-03-02T00:25:52;6.10;1.00
32215;DHT22;18708;53.124;23.190;2024-03-02T00:28:34;6.10;1.00
32215;DHT22;18708;53.124;23.190;2024-03-02T00:31:07;6.10;1.00
32215;DHT22;18708;53.124;23.190;2024-03-02T00:33:39;6.00;1.00
32215;DHT22;18708;53.124;23.190;2024-03-02T00:36:07;6.00;1.00
32215;DHT22;18708;53.124;23.190;2024-03-02T00:38:34;5.90;1.00
32215;DHT22;18708;53.124;23.190;2024-03-02T00:41:06;6.00;1.00
32215;DHT22;18708;53.124;23.190;2024-03-02T00:46:39;5.90;1.00
32215;DHT22;18708;53.124;23.190;2024-03-02T00:51:36;5.90;1.00
32215;DHT22;18708;53.124;23.190;2024-03-02T00:54:05;5.90;1.00
32215;DHT22;18708;53.124;23.190;2024-03-02T00:56:32;5.90;1.00
32215;DHT22;18708;53.124;23.190;2024-03-02T00:58:58;5.80;1.00
32215;DHT22;18708;53.124;23.190;2024-03-02T01:01:24;5.80;1.00
32215;DHT22;18708;53.124;23.190;2024-03-02T01:03:50;5.80;1.00
32215;DHT22;18708;53.124;23.190;2024-03-02T01:06:16;5.80;1.00
32215;DHT22;18708;53.124;23.190;2024-03-02T01:08:42;5.80;1.00
32215;DHT22;18708;53.124;23.190;2024-03-02T01:11:07;5.70;1.00
32215;DHT22;18708;53.124;23.190;2024-03-02T01:13:33;5.70;1.00
32215;DHT22;18708;53.124;23.190;2024-03-02T01:15:59;5.70;1.60
32215;DHT22;18708;53.124;23.190;2024-03-02T01:18:25;5.80;1.00
32215;DHT22;18708;53.124;23.190;2024-03-02T01:20:51;5.70;9.60
32215;DHT22;18708;53.124;23.190;2024-03-02T01:23:20;5.70;25.20
32215;DHT22;18708;53.124;23.190;2024-03-02T01:25:49;5.60;35.30
32215;DHT22;18708;53.124;23.190;2024-03-02T01:28:15;5.70;49.70
32215;DHT22;18708;53.124;23.190;2024-03-02T01:30:41;5.60;65.30
32215;DHT22;18708;53.124;23.190;2024-03-02T01:33:07;5.60;99.90
32215;DHT22;18708;53.124;23.190;2024-03-02T01:35:33;5.60;99.90
32215;DHT22;18708;53.124;23.190;2024-03-02T01:38:00;5.60;99.90
32215;DHT22;18708;53.124;23.190;2024-03-02T01:40:25;5.60;99.90
32215;DHT22;18708;53.124;23.190;2024-03-02T01:42:52;5.50;99.90
32215;DHT22;18708;53.124;23.190;2024-03-02T01:45:22;5.50;99.90
32215;DHT22;18708;53.124;23.190;2024-03-02T01:47:47;5.40;99.90
32215;DHT22;18708;53.124;23.190;2024-03-02T01:50:13;5.50;99.90
32215;DHT22;18708;53.124;23.190;2024-03-02T01:52:40;5.50;99.90
32215;DHT22;18708;53.124;23.190;2024-03-02T01:55:06;5.50;99.90
32215;DHT22;18708;53.124;23.190;2024-03-02T01:57:33;5.50;99.90
32215;DHT22;18708;53.124;23.190;2024-03-02T02:00:00;5.50;99.90
32215;DHT22;18708;53.124;23.190;2024-03-02T02:02:26;5.40;99.90
32215;DHT22;18708;53.124;23.190;2024-03-02T02:04:52;5.50;99.90
32215;DHT22;18708;53.124;23.190;2024-03-02T02:07:17;5.50;99.90
32215;DHT22;18708;53.124;23.190;2024-03-02T02:09:43;5.50;99.90
32215;DHT22;18708;53.124;23.190;2024-03-02T02:12:12;5.40;99.90
32215;DHT22;18708;53.124;23.190;2024-03-02T02:14:37;5.40;99.90
32215;DHT22;18708;53.124;23.190;2024-03-02T02:17:05;5.40;99.90
32215;DHT22;18708;53.124;23.190;2024-03-02T02:19:31;5.40;99.90
32215;DHT22;18708;53.124;23.190;2024-03-02T02:21:56;5.40;99.90
32215;DHT22;18708;53.124;23.190;2024-03-02T02:24:22;5.40;99.90
32215;DHT22;18708;53.124;23.190;2024-03-02T02:26:48;5.40;99.90
32215;DHT22;18708;53.124;23.190;2024-03-02T02:29:13;5.40;99.90
32215;DHT22;18708;53.124;23.190;2024-03-02T02:31:40;5.40;99.90
32215;DHT22;18708;53.124;23.190;2024-03-02T02:34:06;5.40;99.90
32215;DHT22;18708;53.124;23.190;2024-03-02T02:36:33;5.30;99.90
32215;DHT22;18708;53.124;23.190;2024-03-02T02:39:02;5.30;1.00
32215;DHT22;18708;53.124;23.190;2024-03-02T02:41:29;5.20;1.00
32215;DHT22;18708;53.124;23.190;2024-03-02T02:43:55;5.30;1.00
32215;DHT22;18708;53.124;23.190;2024-03-02T02:46:21;5.30;1.00
32215;DHT22;18708;53.124;23.190;2024-03-02T02:48:46;5.30;1.00
32215;DHT22;18708;53.124;23.190;2024-03-02T02:51:12;5.30;1.00
32215;DHT22;18708;53.124;23.190;2024-03-02T02:53:38;5.30;1.00
32215;DHT22;18708;53.124;23.190;2024-03-02T02:56:06;5.30;1.00
32215;DHT22;18708;53.124;23.190;2024-03-02T02:58:32;5.20;1.00
32215;DHT22;18708;53.124;23.190;2024-03-02T03:00:58;5.20;1.00
32215;DHT22;18708;53.124;23.190;2024-03-02T03:03:23;5.20;1.00
32215;DHT22;18708;53.124;23.190;2024-03-02T03:05:49;5.20;1.00
32215;DHT22;18708;53.124;23.190;2024-03-02T03:08:15;5.10;1.00
32215;DHT22;18708;53.124;23.190;2024-03-02T03:10:42;5.10;1.00
32215;DHT22;18708;53.124;23.190;2024-03-02T03:13:08;5.10;1.00
32215;DHT22;18708;53.124;23.190;2024-03-02T03:15:37;5.10;1.00
32215;DHT22;18708;53.124;23.190;2024-03-02T03:18:06;5.10;1.00
32215;DHT22;18708;53.124;23.190;2024-03-02T03:20:33;5.10;1.00
32215;DHT22;18708;53.124;23.190;2024-03-02T03:22:59;5.00;1.00
32215;DHT22;18708;53.124;23.190;2024-03-02T03:25:25;5.00;1.00
32215;DHT22;18708;53.124;23.190;2024-03-02T03:27:51;5.00;1.00
32215;DHT22;18708;53.124;23.190;2024-03-02T03:30:19;5.00;1.00
32215;DHT22;18708;53.124;23.190;2024-03-02T03:32:45;5.00;1.00
32215;DHT22;18708;53.124;23.190;2024-03-02T03:35:11;5.00;1.00
32215;DHT22;18708;53.124;23.190;2024-03-02T03:37:38;5.00;1.00
32215;DHT22;18708;53.124;23.190;2024-03-02T03:40:05;5.00;1.00
32215;DHT22;18708;53.124;23.190;2024-03-02T03:42:37;5.00;1.00
32215;DHT22;18708;53.124;23.190;2024-03-02T03:45:03;5.00;1.00
32215;DHT22;18708;53.124;23.190;2024-03-02T03:47:31;5.00;1.00
32215;DHT22;18708;53.124;23.190;2024-03-02T03:49:57;4.90;1.00
32215;DHT22;18708;53.124;23.190;2024-03-02T03:52:23;4.90;1.00
32215;DHT22;18708;53.124;23.190;2024-03-02T03:54:49;5.00;1.00
32215;DHT22;18708;53.124;23.190;2024-03-02T03:57:15;5.00;1.00
32215;DHT22;18708;53.124;23.190;2024-03-02T03:59:41;5.00;1.00
32215;DHT22;18708;53.124;23.190;2024-03-02T04:02:08;5.00;1.00
32215;DHT22;18708;53.124;23.190;2024-03-02T04:04:34;5.00;1.00
32215;DHT22;18708;53.124;23.190;2024-03-02T04:07:00;5.00;1.00
32215;DHT22;18708;53.124;23.190;2024-03-02T04:09:26;5.00;1.00
32215;DHT22;18708;53.124;23.190;2024-03-02T04:11:52;5.00;1.00
32215;DHT22;18708;53.124;23.190;2024-03-02T04:14:18;4.90;23.30
32215;DHT22;18708;53.124;23.190;2024-03-02T04:16:44;4.90;99.90
32215;DHT22;18708;53.124;23.190;2024-03-02T04:19:10;4.90;99.90
32215;DHT22;18708;53.124;23.190;2024-03-02T04:21:35;4.90;99.90
32215;DHT22;18708;53.124;23.190;2024-03-02T04:24:01;4.90;1.00
32215;DHT22;18708;53.124;23.190;2024-03-02T04:26:27;4.90;1.00
32215;DHT22;18708;53.124;23.190;2024-03-02T04:28:53;4.90;1.00
32215;DHT22;18708;53.124;23.190;2024-03-02T04:31:19;4.80;1.00
32215;DHT22;18708;53.124;23.190;2024-03-02T04:33:45;4.80;99.90
32215;DHT22;18708;53.124;23.190;2024-03-02T04:36:11;4.80;1.00
32215;DHT22;18708;53.124;23.190;2024-03-02T04:38:38;4.80;48.00
32215;DHT22;18708;53.124;23.190;2024-03-02T04:41:05;4.80;99.90
32215;DHT22;18708;53.124;23.190;2024-03-02T04:43:33;4.80;99.90
32215;DHT22;18708;53.124;23.190;2024-03-02T04:46:00;4.70;1.00
32215;DHT22;18708;53.124;23.190;2024-03-02T04:48:26;4.70;1.00
32215;DHT22;18708;53.124;23.190;2024-03-02T04:50:52;4.80;1.00
32215;DHT22;18708;53.124;23.190;2024-03-02T04:53:17;4.70;99.90
32215;DHT22;18708;53.124;23.190;2024-03-02T04:55:43;4.70;99.90
32215;DHT22;18708;53.124;23.190;2024-03-02T04:58:09;4.70;99.90
32215;DHT22;18708;53.124;23.190;2024-03-02T05:00:35;4.70;99.90
32215;DHT22;18708;53.124;23.190;2024-03-02T05:03:01;4.70;99.90
32215;DHT22;18708;53.124;23.190;2024-03-02T05:05:26;4.60;99.90
32215;DHT22;18708;53.124;23.190;2024-03-02T05:07:52;4.60;99.90
32215;DHT22;18708;53.124;23.190;2024-03-02T05:10:18;4.60;99.90
32215;DHT22;18708;53.124;23.190;2024-03-02T05:12:44;4.70;99.90
32215;DHT22;18708;53.124;23.190;2024-03-02T05:15:11;4.70;99.90
32215;DHT22;18708;53.124;23.190;2024-03-02T05:17:37;4.70;99.90
32215;DHT22;18708;53.124;23.190;2024-03-02T05:20:04;4.70;99.90
32215;DHT22;18708;53.124;23.190;2024-03-02T05:22:30;4.70;99.90
32215;DHT22;18708;53.124;23.190;2024-03-02T05:24:58;4.70;99.90
32215;DHT22;18708;53.124;23.190;2024-03-02T05:27:25;4.70;99.90
32215;DHT22;18708;53.124;23.190;2024-03-02T05:29:53;4.80;99.90
32215;DHT22;18708;53.124;23.190;2024-03-02T05:32:19;4.80;99.90
32215;DHT22;18708;53.124;23.190;2024-03-02T05:34:44;4.90;99.90
32215;DHT22;18708;53.124;23.190;2024-03-02T05:37:12;4.90;99.90
32215;DHT22;18708;53.124;23.190;2024-03-02T05:39:38;4.90;99.90
32215;DHT22;18708;53.124;23.190;2024-03-02T05:42:04;4.90;99.90
32215;DHT22;18708;53.124;23.190;2024-03-02T05:44:30;5.00;99.90
32215;DHT22;18708;53.124;23.190;2024-03-02T05:46:55;5.00;99.90
32215;DHT22;18708;53.124;23.190;2024-03-02T05:49:21;5.00;99.90
32215;DHT22;18708;53.124;23.190;2024-03-02T05:51:47;5.10;99.90
32215;DHT22;18708;53.124;23.190;2024-03-02T05:54:13;5.10;99.90
32215;DHT22;18708;53.124;23.190;2024-03-02T05:56:41;5.10;99.90
32215;DHT22;18708;53.124;23.190;2024-03-02T05:59:07;5.20;99.90
32215;DHT22;18708;53.124;23.190;2024-03-02T06:01:39;5.20;99.90
32215;DHT22;18708;53.124;23.190;2024-03-02T06:04:06;5.20;99.90
32215;DHT22;18708;53.124;23.190;2024-03-02T06:06:32;5.20;99.90
32215;DHT22;18708;53.124;23.190;2024-03-02T06:09:02;5.30;99.90
32215;DHT22;18708;53.124;23.190;2024-03-02T06:11:36;5.30;99.90
32215;DHT22;18708;53.124;23.190;2024-03-02T06:14:05;5.30;99.90
32215;DHT22;18708;53.124;23.190;2024-03-02T06:16:31;5.30;99.90
32215;DHT22;18708;53.124;23.190;2024-03-02T06:18:57;5.30;99.90
32215;DHT22;18708;53.124;23.190;2024-03-02T06:21:27;5.30;99.90
32215;DHT22;18708;53.124;23.190;2024-03-02T06:23:53;5.40;99.90
32215;DHT22;18708;53.124;23.190;2024-03-02T06:26:19;5.40;99.90
32215;DHT22;18708;53.124;23.190;2024-03-02T06:28:45;5.50;99.90
32215;DHT22;18708;53.124;23.190;2024-03-02T06:31:11;5.50;99.90
32215;DHT22;18708;53.124;23.190;2024-03-02T06:33:37;5.50;99.90
32215;DHT22;18708;53.124;23.190;2024-03-02T06:36:04;5.50;99.90
32215;DHT22;18708;53.124;23.190;2024-03-02T06:38:29;5.50;99.90
32215;DHT22;18708;53.124;23.190;2024-03-02T06:40:57;5.60;99.90
32215;DHT22;18708;53.124;23.190;2024-03-02T06:43:23;5.60;99.90
32215;DHT22;18708;53.124;23.190;2024-03-02T06:45:51;5.60;99.90
32215;DHT22;18708;53.124;23.190;2024-03-02T06:48:18;5.60;99.90
32215;DHT22;18708;53.124;23.190;2024-03-02T06:50:49;5.60;99.90
32215;DHT22;18708;53.124;23.190;2024-03-02T06:53:15;5.60;99.90
32215;DHT22;18708;53.124;23.190;2024-03-02T06:55:45;5.70;99.90
32215;DHT22;18708;53.124;23.190;2024-03-02T06:58:14;5.70;99.90
32215;DHT22;18708;53.124;23.190;2024-03-02T07:00:43;5.70;99.90
32215;DHT22;18708;53.124;23.190;2024-03-02T07:03:13;5.70;99.90
32215;DHT22;18708;53.124;23.190;2024-03-02T07:05:39;5.70;99.90
32215;DHT22;18708;53.124;23.190;2024-03-02T07:08:05;5.70;99.90
32215;DHT22;18708;53.124;23.190;2024-03-02T07:10:31;5.70;99.90
32215;DHT22;18708;53.124;23.190;2024-03-02T07:12:57;5.80;99.90
32215;DHT22;18708;53.124;23.190;2024-03-02T07:15:23;5.80;99.90
32215;DHT22;18708;53.124;23.190;2024-03-02T07:18:04;5.80;99.90
32215;DHT22;18708;53.124;23.190;2024-03-02T07:20:30;5.80;99.90
32215;DHT22;18708;53.124;23.190;2024-03-02T07:22:56;5.80;99.90
32215;DHT22;18708;53.124;23.190;2024-03-02T07:25:21;5.80;99.90
32215;DHT22;18708;53.124;23.190;2024-03-02T07:27:47;5.90;99.90
32215;DHT22;18708;53.124;23.190;2024-03-02T07:30:16;5.90;99.90
32215;DHT22;18708;53.124;23.190;2024-03-02T07:32:42;5.90;99.90
32215;DHT22;18708;53.124;23.190;2024-03-02T07:35:13;5.90;99.90
32215;DHT22;18708;53.124;23.190;2024-03-02T07:37:41;5.90;99.90
32215;DHT22;18708;53.124;23.190;2024-03-02T07:40:07;6.00;99.90
32215;DHT22;18708;53.124;23.190;2024-03-02T07:42:37;6.00;99.90
32215;DHT22;18708;53.124;23.190;2024-03-02T07:45:04;6.00;99.90
32215;DHT22;18708;53.124;23.190;2024-03-02T07:47:30;6.10;1.00
32215;DHT22;18708;53.124;23.190;2024-03-02T07:49:56;6.10;1.00
32215;DHT22;18708;53.124;23.190;2024-03-02T07:52:21;6.10;1.00
32215;DHT22;18708;53.124;23.190;2024-03-02T07:54:47;6.10;1.00
32215;DHT22;18708;53.124;23.190;2024-03-02T07:57:13;6.10;1.00
32215;DHT22;18708;53.124;23.190;2024-03-02T07:59:38;6.10;1.00
32215;DHT22;18708;53.124;23.190;2024-03-02T08:02:04;6.20;1.00
32215;DHT22;18708;53.124;23.190;2024-03-02T08:04:30;6.30;1.00
32215;DHT22;18708;53.124;23.190;2024-03-02T08:06:56;6.20;1.00
32215;DHT22;18708;53.124;23.190;2024-03-02T08:09:21;6.30;1.00
32215;DHT22;18708;53.124;23.190;2024-03-02T08:11:47;6.30;1.00
32215;DHT22;18708;53.124;23.190;2024-03-02T08:14:13;6.30;1.00
32215;DHT22;18708;53.124;23.190;2024-03-02T08:16:39;6.30;1.00
32215;DHT22;18708;53.124;23.190;2024-03-02T08:19:05;6.20;1.00
32215;DHT22;18708;53.124;23.190;2024-03-02T08:21:31;6.30;1.00
32215;DHT22;18708;53.124;23.190;2024-03-02T08:23:57;6.40;1.00
32215;DHT22;18708;53.124;23.190;2024-03-02T08:26:24;6.40;1.00
32215;DHT22;18708;53.124;23.190;2024-03-02T08:28:49;6.40;1.00
32215;DHT22;18708;53.124;23.190;2024-03-02T08:31:15;6.40;1.00
32215;DHT22;18708;53.124;23.190;2024-03-02T08:33:41;6.40;99.90
32215;DHT22;18708;53.124;23.190;2024-03-02T08:36:08;6.40;99.90
32215;DHT22;18708;53.124;23.190;2024-03-02T08:38:35;6.30;99.90
32215;DHT22;18708;53.124;23.190;2024-03-02T08:41:00;6.30;99.90
32215;DHT22;18708;53.124;23.190;2024-03-02T08:43:26;6.40;99.90
32215;DHT22;18708;53.124;23.190;2024-03-02T08:45:52;6.50;99.90
32215;DHT22;18708;53.124;23.190;2024-03-02T08:48:20;6.50;99.90
32215;DHT22;18708;53.124;23.190;2024-03-02T08:50:46;6.60;99.90
32215;DHT22;18708;53.124;23.190;2024-03-02T08:53:12;6.60;99.90
32215;DHT22;18708;53.124;23.190;2024-03-02T08:55:37;6.70;99.90
32215;DHT22;18708;53.124;23.190;2024-03-02T08:58:04;6.70;99.90
32215;DHT22;18708;53.124;23.190;2024-03-02T09:00:29;6.80;99.90
32215;DHT22;18708;53.124;23.190;2024-03-02T09:02:55;6.80;99.90
32215;DHT22;18708;53.124;23.190;2024-03-02T09:05:21;6.60;99.90
32215;DHT22;18708;53.124;23.190;2024-03-02T09:07:46;6.70;99.90
32215;DHT22;18708;53.124;23.190;2024-03-02T09:10:12;6.80;99.90
32215;DHT22;18708;53.124;23.190;2024-03-02T09:12:38;6.80;35.90
32215;DHT22;18708;53.124;23.190;2024-03-02T09:15:05;6.70;31.40
32215;DHT22;18708;53.124;23.190;2024-03-02T09:17:31;6.80;19.40
32215;DHT22;18708;53.124;23.190;2024-03-02T09:19:57;6.70;20.90
32215;DHT22;18708;53.124;23.190;2024-03-02T09:22:23;6.90;1.00
32215;DHT22;18708;53.124;23.190;2024-03-02T09:24:48;6.90;1.00
32215;DHT22;18708;53.124;23.190;2024-03-02T09:27:14;6.80;1.00
32215;DHT22;18708;53.124;23.190;2024-03-02T09:29:40;6.90;1.00
32215;DHT22;18708;53.124;23.190;2024-03-02T09:32:07;7.00;1.00
32215;DHT22;18708;53.124;23.190;2024-03-02T09:34:32;7.00;1.00
32215;DHT22;18708;53.124;23.190;2024-03-02T09:36:58;7.10;1.00
32215;DHT22;18708;53.124;23.190;2024-03-02T09:39:24;7.20;1.00
32215;DHT22;18708;53.124;23.190;2024-03-02T09:41:53;7.10;1.00
32215;DHT22;18708;53.124;23.190;2024-03-02T09:44:19;7.20;1.00
32215;DHT22;18708;53.124;23.190;2024-03-02T09:46:49;7.30;1.00
32215;DHT22;18708;53.124;23.190;2024-03-02T09:49:15;7.30;1.00
32215;DHT22;18708;53.124;23.190;2024-03-02T09:51:40;7.20;1.00
32215;DHT22;18708;53.124;23.190;2024-03-02T09:54:11;7.30;1.00
32215;DHT22;18708;53.124;23.190;2024-03-02T09:56:37;7.40;1.00
32215;DHT22;18708;53.124;23.190;2024-03-02T09:59:03;7.40;1.00
32215;DHT22;18708;53.124;23.190;2024-03-02T10:01:30;7.50;1.00
32215;DHT22;18708;53.124;23.190;2024-03-02T10:04:01;7.60;1.00
32215;DHT22;18708;53.124;23.190;2024-03-02T10:06:30;7.50;1.00
32215;DHT22;18708;53.124;23.190;2024-03-02T10:08:56;7.60;1.00
32215;DHT22;18708;53.124;23.190;2024-03-02T10:11:32;7.60;1.00
32215;DHT22;18708;53.124;23.190;2024-03-02T10:14:10;7.60;1.00
32215;DHT22;18708;53.124;23.190;2024-03-02T10:16:45;7.70;1.00
32215;DHT22;18708;53.124;23.190;2024-03-02T10:19:22;7.90;1.00
32215;DHT22;18708;53.124;23.190;2024-03-02T10:21:52;7.80;1.00
32215;DHT22;18708;53.124;23.190;2024-03-02T10:24:19;7.80;1.00
32215;DHT22;18708;53.124;23.190;2024-03-02T10:26:45;7.90;1.00
32215;DHT22;18708;53.124;23.190;2024-03-02T10:29:11;8.10;1.00
32215;DHT22;18708;53.124;23.190;2024-03-02T10:31:38;8.20;1.00
32215;DHT22;18708;53.124;23.190;2024-03-02T10:34:05;8.20;1.00
32215;DHT22;18708;53.124;23.190;2024-03-02T10:36:35;8.20;1.00
32215;DHT22;18708;53.124;23.190;2024-03-02T10:39:05;8.40;1.00
32215;DHT22;18708;53.124;23.190;2024-03-02T10:41:33;8.30;99.90
32215;DHT22;18708;53.124;23.190;2024-03-02T10:44:05;8.30;99.90
32215;DHT22;18708;53.124;23.190;2024-03-02T10:46:33;8.40;99.90
32215;DHT22;18708;53.124;23.190;2024-03-02T10:49:00;8.50;99.90
32215;DHT22;18708;53.124;23.190;2024-03-02T10:51:28;8.50;99.90
32215;DHT22;18708;53.124;23.190;2024-03-02T10:53:57;8.60;99.90
32215;DHT22;18708;53.124;23.190;2024-03-02T10:56:42;8.50;99.90
32215;DHT22;18708;53.124;23.190;2024-03-02T10:59:34;8.40;99.90
32215;DHT22;18708;53.124;23.190;2024-03-02T11:02:03;8.50;99.90
32215;DHT22;18708;53.124;23.190;2024-03-02T11:04:30;8.40;99.90
32215;DHT22;18708;53.124;23.190;2024-03-02T11:07:04;8.40;99.90
32215;DHT22;18708;53.124;23.190;2024-03-02T11:09:32;8.40;99.90
32215;DHT22;18708;53.124;23.190;2024-03-02T11:12:19;8.60;99.90
32215;DHT22;18708;53.124;23.190;2024-03-02T11:14:48;8.60;99.90
32215;DHT22;18708;53.124;23.190;2024-03-02T11:17:16;8.50;99.90
32215;DHT22;18708;53.124;23.190;2024-03-02T11:19:43;8.50;99.90
32215;DHT22;18708;53.124;23.190;2024-03-02T11:22:10;8.40;99.90
32215;DHT22;18708;53.124;23.190;2024-03-02T11:24:36;8.30;99.90
32215;DHT22;18708;53.124;23.190;2024-03-02T11:27:04;8.40;99.90
32215;DHT22;18708;53.124;23.190;2024-03-02T11:32:16;8.60;99.90
32215;DHT22;18708;53.124;23.190;2024-03-02T11:34:45;8.80;99.90
32215;DHT22;18708;53.124;23.190;2024-03-02T11:37:12;8.70;99.90
32215;DHT22;18708;53.124;23.190;2024-03-02T11:39:39;8.60;99.90
32215;DHT22;18708;53.124;23.190;2024-03-02T11:42:08;8.70;99.90
32215;DHT22;18708;53.124;23.190;2024-03-02T11:44:36;8.70;99.90
32215;DHT22;18708;53.124;23.190;2024-03-02T11:47:08;8.50;99.90
32215;DHT22;18708;53.124;23.190;2024-03-02T11:52:07;8.70;99.90
32215;DHT22;18708;53.124;23.190;2024-03-02T11:54:36;8.70;99.90
32215;DHT22;18708;53.124;23.190;2024-03-02T11:57:05;8.60;99.90
32215;DHT22;18708;53.124;23.190;2024-03-02T11:59:32;8.80;99.90
32215;DHT22;18708;53.124;23.190;2024-03-02T12:01:58;8.70;99.90
32215;DHT22;18708;53.124;23.190;2024-03-02T12:04:25;8.90;99.90
32215;DHT22;18708;53.124;23.190;2024-03-02T12:06:56;8.80;99.90
32215;DHT22;18708;53.124;23.190;2024-03-02T12:09:28;8.80;99.90
32215;DHT22;18708;53.124;23.190;2024-03-02T12:12:04;8.80;99.90
32215;DHT22;18708;53.124;23.190;2024-03-02T12:14:31;8.70;99.90
32215;DHT22;18708;53.124;23.190;2024-03-02T12:16:57;8.90;99.90
32215;DHT22;18708;53.124;23.190;2024-03-02T12:19:24;8.90;99.90
32215;DHT22;18708;53.124;23.190;2024-03-02T12:22:05;9.00;99.90
32215;DHT22;18708;53.124;23.190;2024-03-02T12:24:31;9.30;99.90
32215;DHT22;18708;53.124;23.190;2024-03-02T12:26:57;9.40;99.90
32215;DHT22;18708;53.124;23.190;2024-03-02T12:29:23;9.20;99.90
32215;DHT22;18708;53.124;23.190;2024-03-02T12:31:51;9.30;99.90
32215;DHT22;18708;53.124;23.190;2024-03-02T12:34:20;9.10;99.90
32215;DHT22;18708;53.124;23.190;2024-03-02T12:36:46;9.00;99.90
32215;DHT22;18708;53.124;23.190;2024-03-02T12:39:18;9.00;91.90
32215;DHT22;18708;53.124;23.190;2024-03-02T12:41:46;9.10;99.90
32215;DHT22;18708;53.124;23.190;2024-03-02T12:44:11;9.20;99.90
32215;DHT22;18708;53.124;23.190;2024-03-02T12:46:37;9.30;95.00
32215;DHT22;18708;53.124;23.190;2024-03-02T12:49:11;9.30;99.90
32215;DHT22;18708;53.124;23.190;2024-03-02T12:51:40;9.50;62.70
32215;DHT22;18708;53.124;23.190;2024-03-02T12:54:10;9.50;56.60
32215;DHT22;18708;53.124;23.190;2024-03-02T12:56:41;9.50;54.00
32215;DHT22;18708;53.124;23.190;2024-03-02T12:59:18;9.60;49.40
32215;DHT22;18708;53.124;23.190;2024-03-02T13:01:54;9.70;43.80
32215;DHT22;18708;53.124;23.190;2024-03-02T13:04:27;9.60;14.90
32215;DHT22;18708;53.124;23.190;2024-03-02T13:06:56;9.70;8.00
32215;DHT22;18708;53.124;23.190;2024-03-02T13:09:26;9.60;1.00
32215;DHT22;18708;53.124;23.190;2024-03-02T13:11:52;9.60;1.00
32215;DHT22;18708;53.124;23.190;2024-03-02T13:14:18;9.50;1.00
32215;DHT22;18708;53.124;23.190;2024-03-02T13:16:44;9.50;1.00
32215;DHT22;18708;53.124;23.190;2024-03-02T13:19:13;9.50;1.00
32215;DHT22;18708;53.124;23.190;2024-03-02T13:21:39;9.70;1.00
32215;DHT22;18708;53.124;23.190;2024-03-02T13:24:05;9.80;1.00
32215;DHT22;18708;53.124;23.190;2024-03-02T13:26:31;9.80;1.00
32215;DHT22;18708;53.124;23.190;2024-03-02T13:28:57;9.90;1.00
32215;DHT22;18708;53.124;23.190;2024-03-02T13:31:23;9.80;1.00
32215;DHT22;18708;53.124;23.190;2024-03-02T13:33:49;9.90;1.00
32215;DHT22;18708;53.124;23.190;2024-03-02T13:36:14;9.90;1.00
32215;DHT22;18708;53.124;23.190;2024-03-02T13:38:40;10.00;1.00
32215;DHT22;18708;53.124;23.190;2024-03-02T13:41:06;10.20;1.00
32215;DHT22;18708;53.124;23.190;2024-03-02T13:43:33;10.10;1.00
32215;DHT22;18708;53.124;23.190;2024-03-02T13:46:01;9.90;1.00
32215;DHT22;18708;53.124;23.190;2024-03-02T13:48:27;10.00;1.00
32215;DHT22;18708;53.124;23.190;2024-03-02T13:50:52;10.00;1.00
32215;DHT22;18708;53.124;23.190;2024-03-02T13:53:19;10.00;1.00
32215;DHT22;18708;53.124;23.190;2024-03-02T13:55:45;9.90;1.00
32215;DHT22;18708;53.124;23.190;2024-03-02T13:58:12;10.00;1.00
32215;DHT22;18708;53.124;23.190;2024-03-02T14:00:38;9.80;1.00
32215;DHT22;18708;53.124;23.190;2024-03-02T14:03:07;9.70;1.00
32215;DHT22;18708;53.124;23.190;2024-03-02T14:05:33;9.70;1.00
32215;DHT22;18708;53.124;23.190;2024-03-02T14:07:59;9.70;1.00
32215;DHT22;18708;53.124;23.190;2024-03-02T14:10:29;9.70;1.00
32215;DHT22;18708;53.124;23.190;2024-03-02T14:12:55;9.60;1.00
32215;DHT22;18708;53.124;23.190;2024-03-02T14:15:21;9.60;1.00
32215;DHT22;18708;53.124;23.190;2024-03-02T14:17:47;9.60;1.00
32215;DHT22;18708;53.124;23.190;2024-03-02T14:20:13;9.50;1.00
32215;DHT22;18708;53.124;23.190;2024-03-02T14:22:39;9.50;1.00
32215;DHT22;18708;53.124;23.190;2024-03-02T14:25:05;9.50;1.00
32215;DHT22;18708;53.124;23.190;2024-03-02T14:27:31;9.50;1.00
32215;DHT22;18708;53.124;23.190;2024-03-02T14:29:57;9.40;1.00
32215;DHT22;18708;53.124;23.190;2024-03-02T14:32:23;9.20;1.00
32215;DHT22;18708;53.124;23.190;2024-03-02T14:34:49;9.20;1.00
32215;DHT22;18708;53.124;23.190;2024-03-02T14:37:15;9.10;1.00
32215;DHT22;18708;53.124;23.190;2024-03-02T14:39:41;9.10;1.00
32215;DHT22;18708;53.124;23.190;2024-03-02T14:42:06;9.10;1.00
32215;DHT22;18708;53.124;23.190;2024-03-02T14:44:33;9.10;1.00
32215;DHT22;18708;53.124;23.190;2024-03-02T14:47:02;9.00;1.00
32215;DHT22;18708;53.124;23.190;2024-03-02T14:49:30;9.00;1.00
32215;DHT22;18708;53.124;23.190;2024-03-02T14:51:56;9.00;1.00
32215;DHT22;18708;53.124;23.190;2024-03-02T14:54:22;9.00;1.00
32215;DHT22;18708;53.124;23.190;2024-03-02T14:56:47;8.80;1.00
32215;DHT22;18708;53.124;23.190;2024-03-02T14:59:13;8.80;1.00
32215;DHT22;18708;53.124;23.190;2024-03-02T15:01:39;8.80;1.00
32215;DHT22;18708;53.124;23.190;2024-03-02T15:04:05;8.70;1.00
32215;DHT22;18708;53.124;23.190;2024-03-02T15:06:32;8.60;1.00
32215;DHT22;18708;53.124;23.190;2024-03-02T15:08:58;8.60;1.00
32215;DHT22;18708;53.124;23.190;2024-03-02T15:11:24;8.50;1.00
32215;DHT22;18708;53.124;23.190;2024-03-02T15:13:50;8.50;1.00
32215;DHT22;18708;53.124;23.190;2024-03-02T15:16:16;8.40;1.00
32215;DHT22;18708;53.124;23.190;2024-03-02T15:18:42;8.40;1.00
32215;DHT22;18708;53.124;23.190;2024-03-02T15:21:08;8.30;1.00
32215;DHT22;18708;53.124;23.190;2024-03-02T15:23:33;8.30;1.00
32215;DHT22;18708;53.124;23.190;2024-03-02T15:25:59;8.30;1.00
32215;DHT22;18708;53.124;23.190;2024-03-02T15:28:25;8.20;1.00
32215;DHT22;18708;53.124;23.190;2024-03-02T15:30:51;8.10;1.00
32215;DHT22;18708;53.124;23.190;2024-03-02T15:33:17;8.10;1.00
32215;DHT22;18708;53.124;23.190;2024-03-02T15:35:43;8.10;1.00
32215;DHT22;18708;53.124;23.190;2024-03-02T15:38:09;8.00;1.00
32215;DHT22;18708;53.124;23.190;2024-03-02T15:40:37;8.00;1.00
32215;DHT22;18708;53.124;23.190;2024-03-02T15:43:03;8.00;1.00
32215;DHT22;18708;53.124;23.190;2024-03-02T15:45:29;8.00;1.00
32215;DHT22;18708;53.124;23.190;2024-03-02T15:47:59;7.90;1.00